sensor_id;sensor_type;location;lat;lon;timestamp;temperature;humidity
35043;DHT22;21230;51.170;17.024;2023-06-14T00:02:54;10.70;99.90
35043;DHT22;21230;51.170;17.024;2023-06-14T00:05:21;10.70;99.90
35043;DHT22;21230;51.170;17.024;2023-06-14T00:07:48;10.70;99.90
35043;DHT22;21230;51.170;17.024;2023-06-14T00:10:14;10.70;99.90
35043;DHT22;21230;51.170;17.024;2023-06-14T00:12:40;10.70;99.90
35043;DHT22;21230;51.170;17.024;2023-06-14T00:15:07;10.70;99.90
35043;DHT22;21230;51.170;17.024;2023-06-14T00:17:35;10.60;99.90
35043;DHT22;21230;51.170;17.024;2023-06-14T00:20:02;10.50;99.90
35043;DHT22;21230;51.170;17.024;2023-06-14T00:22:30;10.50;99.90
35043;DHT22;21230;51.170;17.024;2023-06-14T00:25:08;10.50;99.90
35043;DHT22;21230;51.170;17.024;2023-06-14T00:27:34;10.50;99.90
35043;DHT22;21230;51.170;17.024;2023-06-14T00:30:00;10.50;99.90
35043;DHT22;21230;51.170;17.024;2023-06-14T00:32:26;10.50;99.90
35043;DHT22;21230;51.170;17.024;2023-06-14T00:34:53;10.50;99.90
35043;DHT22;21230;51.170;17.024;2023-06-14T00:37:18;10.50;99.90
35043;DHT22;21230;51.170;17.024;2023-06-14T00:39:44;10.40;99.90
35043;DHT22;21230;51.170;17.024;2023-06-14T00:42:09;10.40;99.90
35043;DHT22;21230;51.170;17.024;2023-06-14T00:44:35;10.30;99.90
35043;DHT22;21230;51.170;17.024;2023-06-14T00:47:01;10.30;99.90
35043;DHT22;21230;51.170;17.024;2023-06-14T00:49:27;10.20;99.90
35043;DHT22;21230;51.170;17.024;2023-06-14T00:51:54;10.20;99.90
35043;DHT22;21230;51.170;17.024;2023-06-14T00:54:20;10.20;99.90
35043;DHT22;21230;51.170;17.024;2023-06-14T00:56:46;10.20;99.90
35043;DHT22;21230;51.170;17.024;2023-06-14T00:59:12;10.30;99.90
35043;DHT22;21230;51.170;17.024;2023-06-14T01:01:38;10.30;99.90
35043;DHT22;21230;51.170;17.024;2023-06-14T01:04:04;10.30;99.90
35043;DHT22;21230;51.170;17.024;2023-06-14T01:06:37;10.20;99.90
35043;DHT22;21230;51.170;17.024;2023-06-14T01:14:52;10.10;99.90
35043;DHT22;21230;51.170;17.024;2023-06-14T01:17:19;10.00;99.90
35043;DHT22;21230;51.170;17.024;2023-06-14T01:19:45;10.10;99.90
35043;DHT22;21230;51.170;17.024;2023-06-14T01:22:11;10.10;99.90
35043;DHT22;21230;51.170;17.024;2023-06-14T01:24:36;10.10;99.90
35043;DHT22;21230;51.170;17.024;2023-06-14T01:27:04;10.10;99.90
35043;DHT22;21230;51.170;17.024;2023-06-14T01:29:31;10.10;99.90
35043;DHT22;21230;51.170;17.024;2023-06-14T01:31:58;10.10;99.90
35043;DHT22;21230;51.170;17.024;2023-06-14T01:34:25;10.10;99.90
35043;DHT22;21230;51.170;17.024;2023-06-14T01:36:50;10.20;99.90
35043;DHT22;21230;51.170;17.024;2023-06-14T01:39:17;10.20;99.90
35043;DHT22;21230;51.170;17.024;2023-06-14T01:41:43;10.20;99.90
35043;DHT22;21230;51.170;17.024;2023-06-14T01:44:10;10.20;99.90
35043;DHT22;21230;51.170;17.024;2023-06-14T01:46:37;10.20;99.90
35043;DHT22;21230;51.170;17.024;2023-06-14T01:49:03;10.30;99.90
35043;DHT22;21230;51.170;17.024;2023-06-14T01:51:29;10.20;99.90
35043;DHT22;21230;51.170;17.024;2023-06-14T01:53:55;10.30;99.90
35043;DHT22;21230;51.170;17.024;2023-06-14T01:56:20;10.30;99.90
35043;DHT22;21230;51.170;17.024;2023-06-14T01:58:47;10.30;99.90
35043;DHT22;21230;51.170;17.024;2023-06-14T02:01:13;10.20;99.90
35043;DHT22;21230;51.170;17.024;2023-06-14T02:03:41;10.20;99.90
35043;DHT22;21230;51.170;17.024;2023-06-14T02:06:07;10.20;99.90
35043;DHT22;21230;51.170;17.024;2023-06-14T02:08:33;10.10;99.90
35043;DHT22;21230;51.170;17.024;2023-06-14T02:10:58;10.10;99.90
35043;DHT22;21230;51.170;17.024;2023-06-14T02:13:24;10.00;99.90
35043;DHT22;21230;51.170;17.024;2023-06-14T02:15:50;9.90;99.90
35043;DHT22;21230;51.170;17.024;2023-06-14T02:18:20;9.90;99.90
35043;DHT22;21230;51.170;17.024;2023-06-14T02:20:46;9.90;99.90
35043;DHT22;21230;51.170;17.024;2023-06-14T02:23:12;9.90;99.90
35043;DHT22;21230;51.170;17.024;2023-06-14T02:25:38;10.00;99.90
35043;DHT22;21230;51.170;17.024;2023-06-14T02:28:05;9.90;99.90
35043;DHT22;21230;51.170;17.024;2023-06-14T02:30:30;9.90;99.90
35043;DHT22;21230;51.170;17.024;2023-06-14T02:32:56;9.90;99.90
35043;DHT22;21230;51.170;17.024;2023-06-14T02:35:22;9.90;99.90
35043;DHT22;21230;51.170;17.024;2023-06-14T02:37:51;9.80;99.90
35043;DHT22;21230;51.170;17.024;2023-06-14T02:40:18;9.80;99.90
35043;DHT22;21230;51.170;17.024;2023-06-14T02:42:44;9.90;99.90
35043;DHT22;21230;51.170;17.024;2023-06-14T02:45:09;9.90;99.90
35043;DHT22;21230;51.170;17.024;2023-06-14T02:47:35;10.00;99.90
35043;DHT22;21230;51.170;17.024;2023-06-14T02:50:01;10.00;99.90
35043;DHT22;21230;51.170;17.024;2023-06-14T02:52:28;9.90;99.90
35043;DHT22;21230;51.170;17.024;2023-06-14T02:54:53;9.90;99.90
35043;DHT22;21230;51.170;17.024;2023-06-14T02:57:20;9.90;99.90
35043;DHT22;21230;51.170;17.024;2023-06-14T02:59:45;10.00;99.90
35043;DHT22;21230;51.170;17.024;2023-06-14T03:02:11;10.00;99.90
35043;DHT22;21230;51.170;17.024;2023-06-14T03:04:37;10.00;99.90
35043;DHT22;21230;51.170;17.024;2023-06-14T03:07:02;10.00;99.90
35043;DHT22;21230;51.170;17.024;2023-06-14T03:09:37;10.00;99.90
35043;DHT22;21230;51.170;17.024;2023-06-14T03:12:04;10.00;99.90
35043;DHT22;21230;51.170;17.024;2023-06-14T03:14:30;10.00;99.90
35043;DHT22;21230;51.170;17.024;2023-06-14T03:16:56;10.00;99.90
35043;DHT22;21230;51.170;17.024;2023-06-14T03:19:22;10.10;99.90
35043;DHT22;21230;51.170;17.024;2023-06-14T03:21:48;10.10;99.90
35043;DHT22;21230;51.170;17.024;2023-06-14T03:24:14;10.10;99.90
35043;DHT22;21230;51.170;17.024;2023-06-14T03:26:41;10.10;99.90
35043;DHT22;21230;51.170;17.024;2023-06-14T03:29:07;10.00;99.90
35043;DHT22;21230;51.170;17.024;2023-06-14T03:31:34;10.00;99.90
35043;DHT22;21230;51.170;17.024;2023-06-14T03:34:03;10.00;99.90
35043;DHT22;21230;51.170;17.024;2023-06-14T03:36:28;10.10;99.90
35043;DHT22;21230;51.170;17.024;2023-06-14T03:38:54;10.20;99.90
35043;DHT22;21230;51.170;17.024;2023-06-14T03:41:20;10.30;99.90
35043;DHT22;21230;51.170;17.024;2023-06-14T03:43:46;10.50;99.90
35043;DHT22;21230;51.170;17.024;2023-06-14T03:46:12;10.70;99.90
35043;DHT22;21230;51.170;17.024;2023-06-14T03:48:37;10.90;99.90
35043;DHT22;21230;51.170;17.024;2023-06-14T03:51:04;11.00;99.90
35043;DHT22;21230;51.170;17.024;2023-06-14T03:53:30;11.10;99.90
35043;DHT22;21230;51.170;17.024;2023-06-14T03:55:56;11.20;99.90
35043;DHT22;21230;51.170;17.024;2023-06-14T03:58:22;11.30;99.90
35043;DHT22;21230;51.170;17.024;2023-06-14T04:00:48;11.30;99.90
35043;DHT22;21230;51.170;17.024;2023-06-14T04:03:13;11.40;99.90
35043;DHT22;21230;51.170;17.024;2023-06-14T04:05:41;11.50;99.90
35043;DHT22;21230;51.170;17.024;2023-06-14T04:08:09;11.50;99.90
35043;DHT22;21230;51.170;17.024;2023-06-14T04:10:35;11.50;99.90
35043;DHT22;21230;51.170;17.024;2023-06-14T04:13:01;11.50;99.90
35043;DHT22;21230;51.170;17.024;2023-06-14T04:15:27;11.50;99.90
35043;DHT22;21230;51.170;17.024;2023-06-14T04:17:55;11.60;99.90
35043;DHT22;21230;51.170;17.024;2023-06-14T04:20:22;11.60;99.90
35043;DHT22;21230;51.170;17.024;2023-06-14T04:22:49;11.60;99.90
35043;DHT22;21230;51.170;17.024;2023-06-14T04:25:15;11.60;99.90
35043;DHT22;21230;51.170;17.024;2023-06-14T04:27:40;11.60;99.90
35043;DHT22;21230;51.170;17.024;2023-06-14T04:30:07;11.60;99.90
35043;DHT22;21230;51.170;17.024;2023-06-14T04:32:33;11.70;99.90
35043;DHT22;21230;51.170;17.024;2023-06-14T04:35:07;11.70;99.90
35043;DHT22;21230;51.170;17.024;2023-06-14T04:37:33;11.80;99.90
35043;DHT22;21230;51.170;17.024;2023-06-14T04:40:00;11.90;99.90
35043;DHT22;21230;51.170;17.024;2023-06-14T04:42:26;12.00;99.90
35043;DHT22;21230;51.170;17.024;2023-06-14T04:44:56;12.10;99.90
35043;DHT22;21230;51.170;17.024;2023-06-14T04:47:21;12.10;99.90
35043;DHT22;21230;51.170;17.024;2023-06-14T04:49:47;12.20;99.90
35043;DHT22;21230;51.170;17.024;2023-06-14T04:52:13;12.20;99.90
35043;DHT22;21230;51.170;17.024;2023-06-14T04:54:39;12.20;99.90
35043;DHT22;21230;51.170;17.024;2023-06-14T04:57:07;12.20;99.90
35043;DHT22;21230;51.170;17.024;2023-06-14T04:59:33;12.20;99.90
35043;DHT22;21230;51.170;17.024;2023-06-14T05:02:00;12.20;99.90
35043;DHT22;21230;51.170;17.024;2023-06-14T05:04:26;12.20;99.90
35043;DHT22;21230;51.170;17.024;2023-06-14T05:06:53;12.30;99.90
35043;DHT22;21230;51.170;17.024;2023-06-14T05:09:20;12.30;99.90
35043;DHT22;21230;51.170;17.024;2023-06-14T05:11:46;12.40;99.90
35043;DHT22;21230;51.170;17.024;2023-06-14T05:14:13;12.70;99.90
35043;DHT22;21230;51.170;17.024;2023-06-14T05:16:39;12.90;99.90
35043;DHT22;21230;51.170;17.024;2023-06-14T05:19:09;13.20;99.90
35043;DHT22;21230;51.170;17.024;2023-06-14T05:21:36;13.40;99.90
35043;DHT22;21230;51.170;17.024;2023-06-14T05:24:02;13.60;99.90
35043;DHT22;21230;51.170;17.024;2023-06-14T05:26:28;13.90;99.90
35043;DHT22;21230;51.170;17.024;2023-06-14T05:29:00;14.00;99.90
35043;DHT22;21230;51.170;17.024;2023-06-14T05:31:27;14.10;99.90
35043;DHT22;21230;51.170;17.024;2023-06-14T05:33:53;14.20;99.90
35043;DHT22;21230;51.170;17.024;2023-06-14T05:36:19;14.20;99.90
35043;DHT22;21230;51.170;17.024;2023-06-14T05:38:46;14.40;99.90
35043;DHT22;21230;51.170;17.024;2023-06-14T05:41:12;14.50;99.90
35043;DHT22;21230;51.170;17.024;2023-06-14T05:43:38;14.60;99.90
35043;DHT22;21230;51.170;17.024;2023-06-14T05:46:03;14.70;99.90
35043;DHT22;21230;51.170;17.024;2023-06-14T05:48:30;14.90;99.90
35043;DHT22;21230;51.170;17.024;2023-06-14T05:50:56;15.00;99.90
35043;DHT22;21230;51.170;17.024;2023-06-14T05:53:21;15.10;99.90
35043;DHT22;21230;51.170;17.024;2023-06-14T05:55:47;15.10;99.90
35043;DHT22;21230;51.170;17.024;2023-06-14T05:58:12;15.20;99.90
35043;DHT22;21230;51.170;17.024;2023-06-14T06:00:39;15.20;99.90
35043;DHT22;21230;51.170;17.024;2023-06-14T06:03:04;15.20;99.90
35043;DHT22;21230;51.170;17.024;2023-06-14T06:05:33;15.20;99.90
35043;DHT22;21230;51.170;17.024;2023-06-14T06:07:59;15.30;99.90
35043;DHT22;21230;51.170;17.024;2023-06-14T06:10:25;15.40;99.90
35043;DHT22;21230;51.170;17.024;2023-06-14T06:12:51;15.50;99.90
35043;DHT22;21230;51.170;17.024;2023-06-14T06:15:17;15.50;99.90
35043;DHT22;21230;51.170;17.024;2023-06-14T06:17:44;15.60;99.90
35043;DHT22;21230;51.170;17.024;2023-06-14T06:20:10;15.60;99.90
35043;DHT22;21230;51.170;17.024;2023-06-14T06:22:37;15.70;99.90
35043;DHT22;21230;51.170;17.024;2023-06-14T06:25:03;15.60;99.90
35043;DHT22;21230;51.170;17.024;2023-06-14T06:27:29;15.60;99.90
35043;DHT22;21230;51.170;17.024;2023-06-14T06:29:54;15.30;99.90
35043;DHT22;21230;51.170;17.024;2023-06-14T06:32:20;15.30;99.90
35043;DHT22;21230;51.170;17.024;2023-06-14T06:34:46;15.10;99.90
35043;DHT22;21230;51.170;17.024;2023-06-14T06:37:12;15.00;99.90
35043;DHT22;21230;51.170;17.024;2023-06-14T06:39:37;14.80;99.90
35043;DHT22;21230;51.170;17.024;2023-06-14T06:42:03;14.70;99.90
35043;DHT22;21230;51.170;17.024;2023-06-14T06:44:28;14.70;99.90
35043;DHT22;21230;51.170;17.024;2023-06-14T06:46:54;14.80;99.90
35043;DHT22;21230;51.170;17.024;2023-06-14T06:49:20;14.80;99.90
35043;DHT22;21230;51.170;17.024;2023-06-14T06:51:58;14.80;99.90
35043;DHT22;21230;51.170;17.024;2023-06-14T06:54:24;14.70;99.90
35043;DHT22;21230;51.170;17.024;2023-06-14T06:56:50;14.60;99.90
35043;DHT22;21230;51.170;17.024;2023-06-14T06:59:16;14.80;99.90
35043;DHT22;21230;51.170;17.024;2023-06-14T07:01:42;14.80;99.90
35043;DHT22;21230;51.170;17.024;2023-06-14T07:04:07;14.90;99.90
35043;DHT22;21230;51.170;17.024;2023-06-14T07:06:33;15.00;99.90
35043;DHT22;21230;51.170;17.024;2023-06-14T07:08:59;15.00;99.90
35043;DHT22;21230;51.170;17.024;2023-06-14T07:11:27;15.00;99.90
35043;DHT22;21230;51.170;17.024;2023-06-14T07:13:52;15.10;99.90
35043;DHT22;21230;51.170;17.024;2023-06-14T07:16:18;15.10;99.90
35043;DHT22;21230;51.170;17.024;2023-06-14T07:18:43;15.20;99.90
35043;DHT22;21230;51.170;17.024;2023-06-14T07:21:09;15.50;99.90
35043;DHT22;21230;51.170;17.024;2023-06-14T07:23:35;15.70;99.90
35043;DHT22;21230;51.170;17.024;2023-06-14T07:26:02;15.80;99.90
35043;DHT22;21230;51.170;17.024;2023-06-14T07:28:28;15.90;99.90
35043;DHT22;21230;51.170;17.024;2023-06-14T07:30:53;16.10;99.90
35043;DHT22;21230;51.170;17.024;2023-06-14T07:33:19;16.20;99.90
35043;DHT22;21230;51.170;17.024;2023-06-14T07:35:45;16.20;99.90
35043;DHT22;21230;51.170;17.024;2023-06-14T07:38:11;16.20;99.90
35043;DHT22;21230;51.170;17.024;2023-06-14T07:40:37;16.20;99.90
35043;DHT22;21230;51.170;17.024;2023-06-14T07:43:02;16.20;99.90
35043;DHT22;21230;51.170;17.024;2023-06-14T07:45:28;16.40;99.90
35043;DHT22;21230;51.170;17.024;2023-06-14T07:47:53;16.30;99.90
35043;DHT22;21230;51.170;17.024;2023-06-14T07:50:19;16.20;99.90
35043;DHT22;21230;51.170;17.024;2023-06-14T07:52:45;16.30;99.90
35043;DHT22;21230;51.170;17.024;2023-06-14T07:55:11;16.40;99.90
35043;DHT22;21230;51.170;17.024;2023-06-14T07:57:36;16.30;99.90
35043;DHT22;21230;51.170;17.024;2023-06-14T08:00:02;16.30;99.90
35043;DHT22;21230;51.170;17.024;2023-06-14T08:02:31;16.20;99.90
35043;DHT22;21230;51.170;17.024;2023-06-14T08:04:57;16.20;99.90
35043;DHT22;21230;51.170;17.024;2023-06-14T08:07:23;16.40;99.90
35043;DHT22;21230;51.170;17.024;2023-06-14T08:09:49;16.40;99.90
35043;DHT22;21230;51.170;17.024;2023-06-14T08:12:15;16.50;99.90
35043;DHT22;21230;51.170;17.024;2023-06-14T08:14:42;16.50;99.90
35043;DHT22;21230;51.170;17.024;2023-06-14T08:17:08;16.60;99.90
35043;DHT22;21230;51.170;17.024;2023-06-14T08:19:33;16.80;99.90
35043;DHT22;21230;51.170;17.024;2023-06-14T08:21:59;17.10;99.90
35043;DHT22;21230;51.170;17.024;2023-06-14T08:24:25;17.20;99.90
35043;DHT22;21230;51.170;17.024;2023-06-14T08:26:55;17.40;99.90
35043;DHT22;21230;51.170;17.024;2023-06-14T08:29:21;17.40;99.90
35043;DHT22;21230;51.170;17.024;2023-06-14T08:31:47;17.40;99.90
35043;DHT22;21230;51.170;17.024;2023-06-14T08:34:13;17.20;99.90
35043;DHT22;21230;51.170;17.024;2023-06-14T08:36:38;17.00;99.90
35043;DHT22;21230;51.170;17.024;2023-06-14T08:39:05;17.00;99.90
35043;DHT22;21230;51.170;17.024;2023-06-14T08:41:31;16.80;99.90
35043;DHT22;21230;51.170;17.024;2023-06-14T08:43:58;16.70;99.90
35043;DHT22;21230;51.170;17.024;2023-06-14T08:46:25;16.50;99.90
35043;DHT22;21230;51.170;17.024;2023-06-14T08:48:52;16.60;99.90
35043;DHT22;21230;51.170;17.024;2023-06-14T08:51:20;16.70;99.90
35043;DHT22;21230;51.170;17.024;2023-06-14T08:53:52;17.00;99.90
35043;DHT22;21230;51.170;17.024;2023-06-14T08:56:18;17.20;99.90
35043;DHT22;21230;51.170;17.024;2023-06-14T08:58:45;17.20;99.90
35043;DHT22;21230;51.170;17.024;2023-06-14T09:01:13;17.30;99.90
35043;DHT22;21230;51.170;17.024;2023-06-14T09:03:43;17.30;99.90
35043;DHT22;21230;51.170;17.024;2023-06-14T09:06:10;17.40;99.90
35043;DHT22;21230;51.170;17.024;2023-06-14T09:08:45;17.40;99.90
35043;DHT22;21230;51.170;17.024;2023-06-14T09:11:12;17.30;99.90
35043;DHT22;21230;51.170;17.024;2023-06-14T09:13:38;17.20;99.90
35043;DHT22;21230;51.170;17.024;2023-06-14T09:16:04;17.30;99.90
35043;DHT22;21230;51.170;17.024;2023-06-14T09:18:43;17.20;99.90
35043;DHT22;21230;51.170;17.024;2023-06-14T09:21:10;17.20;99.90
35043;DHT22;21230;51.170;17.024;2023-06-14T09:23:37;17.30;99.90
35043;DHT22;21230;51.170;17.024;2023-06-14T09:26:09;17.20;99.90
35043;DHT22;21230;51.170;17.024;2023-06-14T09:28:36;17.20;99.90
35043;DHT22;21230;51.170;17.024;2023-06-14T09:31:02;17.30;99.90
35043;DHT22;21230;51.170;17.024;2023-06-14T09:33:27;17.40;99.90
35043;DHT22;21230;51.170;17.024;2023-06-14T09:35:56;17.40;99.90
35043;DHT22;21230;51.170;17.024;2023-06-14T09:38:22;17.30;99.90
35043;DHT22;21230;51.170;17.024;2023-06-14T09:40:49;17.10;99.90
35043;DHT22;21230;51.170;17.024;2023-06-14T09:43:15;17.00;99.90
35043;DHT22;21230;51.170;17.024;2023-06-14T09:45:40;17.10;99.90
35043;DHT22;21230;51.170;17.024;2023-06-14T09:48:06;17.00;99.90
35043;DHT22;21230;51.170;17.024;2023-06-14T09:50:33;16.80;99.90
35043;DHT22;21230;51.170;17.024;2023-06-14T09:53:02;16.80;99.90
35043;DHT22;21230;51.170;17.024;2023-06-14T09:55:28;16.90;99.90
35043;DHT22;21230;51.170;17.024;2023-06-14T09:57:56;17.00;99.90
35043;DHT22;21230;51.170;17.024;2023-06-14T10:00:32;17.00;99.90
35043;DHT22;21230;51.170;17.024;2023-06-14T10:03:00;17.10;99.90
35043;DHT22;21230;51.170;17.024;2023-06-14T10:05:29;17.30;99.90
35043;DHT22;21230;51.170;17.024;2023-06-14T10:07:56;17.50;99.90
35043;DHT22;21230;51.170;17.024;2023-06-14T10:10:24;17.70;99.90
35043;DHT22;21230;51.170;17.024;2023-06-14T10:12:49;17.90;99.90
35043;DHT22;21230;51.170;17.024;2023-06-14T10:15:23;17.90;98.80
35043;DHT22;21230;51.170;17.024;2023-06-14T10:17:54;17.90;96.90
35043;DHT22;21230;51.170;17.024;2023-06-14T10:20:26;18.10;99.10
35043;DHT22;21230;51.170;17.024;2023-06-14T10:22:56;18.30;96.20
35043;DHT22;21230;51.170;17.024;2023-06-14T10:25:29;18.40;94.10
35043;DHT22;21230;51.170;17.024;2023-06-14T10:30:41;18.50;94.20
35043;DHT22;21230;51.170;17.024;2023-06-14T10:33:26;18.60;92.70
35043;DHT22;21230;51.170;17.024;2023-06-14T10:36:06;18.30;92.90
35043;DHT22;21230;51.170;17.024;2023-06-14T10:38:32;18.40;92.80
35043;DHT22;21230;51.170;17.024;2023-06-14T10:40:58;18.40;94.20
35043;DHT22;21230;51.170;17.024;2023-06-14T10:43:24;18.60;93.40
35043;DHT22;21230;51.170;17.024;2023-06-14T10:48:34;18.60;91.70
35043;DHT22;21230;51.170;17.024;2023-06-14T10:51:05;18.10;92.50
35043;DHT22;21230;51.170;17.024;2023-06-14T10:53:40;18.10;95.40
35043;DHT22;21230;51.170;17.024;2023-06-14T10:56:06;18.10;94.90
35043;DHT22;21230;51.170;17.024;2023-06-14T10:58:32;18.20;95.80
35043;DHT22;21230;51.170;17.024;2023-06-14T11:00:58;18.10;94.60
35043;DHT22;21230;51.170;17.024;2023-06-14T11:03:46;18.40;93.50
35043;DHT22;21230;51.170;17.024;2023-06-14T11:06:17;18.60;91.60
35043;DHT22;21230;51.170;17.024;2023-06-14T11:08:51;18.70;91.40
35043;DHT22;21230;51.170;17.024;2023-06-14T11:11:19;18.90;90.50
35043;DHT22;21230;51.170;17.024;2023-06-14T11:13:47;18.80;86.60
35043;DHT22;21230;51.170;17.024;2023-06-14T11:16:14;18.90;84.90
35043;DHT22;21230;51.170;17.024;2023-06-14T11:18:41;18.80;84.30
35043;DHT22;21230;51.170;17.024;2023-06-14T11:21:08;18.90;86.20
35043;DHT22;21230;51.170;17.024;2023-06-14T11:23:37;18.90;85.00
35043;DHT22;21230;51.170;17.024;2023-06-14T11:26:02;18.70;84.90
35043;DHT22;21230;51.170;17.024;2023-06-14T11:28:37;18.60;87.20
35043;DHT22;21230;51.170;17.024;2023-06-14T11:31:03;18.50;86.30
35043;DHT22;21230;51.170;17.024;2023-06-14T11:33:29;18.60;87.30
35043;DHT22;21230;51.170;17.024;2023-06-14T11:35:55;18.50;86.80
35043;DHT22;21230;51.170;17.024;2023-06-14T11:38:21;18.60;86.30
35043;DHT22;21230;51.170;17.024;2023-06-14T11:40:46;18.60;86.40
35043;DHT22;21230;51.170;17.024;2023-06-14T11:43:13;18.50;86.80
35043;DHT22;21230;51.170;17.024;2023-06-14T11:45:40;18.40;89.20
35043;DHT22;21230;51.170;17.024;2023-06-14T11:48:06;18.50;88.20
35043;DHT22;21230;51.170;17.024;2023-06-14T11:50:32;18.40;87.80
35043;DHT22;21230;51.170;17.024;2023-06-14T11:52:59;18.40;90.00
35043;DHT22;21230;51.170;17.024;2023-06-14T11:55:36;18.40;86.60
35043;DHT22;21230;51.170;17.024;2023-06-14T11:58:02;18.50;85.40
35043;DHT22;21230;51.170;17.024;2023-06-14T12:00:28;18.50;85.10
35043;DHT22;21230;51.170;17.024;2023-06-14T12:02:54;18.40;89.20
35043;DHT22;21230;51.170;17.024;2023-06-14T12:05:24;18.30;91.30
35043;DHT22;21230;51.170;17.024;2023-06-14T12:07:50;18.40;92.10
35043;DHT22;21230;51.170;17.024;2023-06-14T12:10:18;18.30;91.30
35043;DHT22;21230;51.170;17.024;2023-06-14T12:12:44;18.30;89.50
35043;DHT22;21230;51.170;17.024;2023-06-14T12:15:10;18.20;90.80
35043;DHT22;21230;51.170;17.024;2023-06-14T12:17:39;18.20;91.60
35043;DHT22;21230;51.170;17.024;2023-06-14T12:20:11;18.10;91.80
35043;DHT22;21230;51.170;17.024;2023-06-14T12:22:46;18.10;93.40
35043;DHT22;21230;51.170;17.024;2023-06-14T12:25:22;18.00;95.60
35043;DHT22;21230;51.170;17.024;2023-06-14T12:27:48;17.70;96.70
35043;DHT22;21230;51.170;17.024;2023-06-14T12:30:14;17.70;98.30
35043;DHT22;21230;51.170;17.024;2023-06-14T12:32:39;17.60;99.90
35043;DHT22;21230;51.170;17.024;2023-06-14T12:35:05;17.40;99.90
35043;DHT22;21230;51.170;17.024;2023-06-14T12:37:31;17.40;99.90
35043;DHT22;21230;51.170;17.024;2023-06-14T12:39:57;17.40;99.90
35043;DHT22;21230;51.170;17.024;2023-06-14T12:42:22;17.30;99.90
35043;DHT22;21230;51.170;17.024;2023-06-14T12:44:48;17.30;99.90
35043;DHT22;21230;51.170;17.024;2023-06-14T12:47:13;17.30;99.90
35043;DHT22;21230;51.170;17.024;2023-06-14T12:49:40;17.40;99.90
35043;DHT22;21230;51.170;17.024;2023-06-14T12:52:06;17.40;99.90
35043;DHT22;21230;51.170;17.024;2023-06-14T12:54:32;17.40;99.90
35043;DHT22;21230;51.170;17.024;2023-06-14T12:56:58;17.40;99.90
35043;DHT22;21230;51.170;17.024;2023-06-14T12:59:23;17.40;99.90
35043;DHT22;21230;51.170;17.024;2023-06-14T13:01:49;17.40;99.90
35043;DHT22;21230;51.170;17.024;2023-06-14T13:04:15;17.40;99.90
35043;DHT22;21230;51.170;17.024;2023-06-14T13:06:41;17.60;99.90
35043;DHT22;21230;51.170;17.024;2023-06-14T13:09:07;17.70;99.90
35043;DHT22;21230;51.170;17.024;2023-06-14T13:11:33;17.70;99.90
35043;DHT22;21230;51.170;17.024;2023-06-14T13:13:59;17.70;99.90
35043;DHT22;21230;51.170;17.024;2023-06-14T13:16:24;17.70;99.90
35043;DHT22;21230;51.170;17.024;2023-06-14T13:18:50;17.70;99.90
35043;DHT22;21230;51.170;17.024;2023-06-14T13:21:16;17.70;99.90
35043;DHT22;21230;51.170;17.024;2023-06-14T13:23:48;17.60;99.90
35043;DHT22;21230;51.170;17.024;2023-06-14T13:26:24;17.50;99.90
35043;DHT22;21230;51.170;17.024;2023-06-14T13:28:50;17.30;99.90
35043;DHT22;21230;51.170;17.024;2023-06-14T13:31:16;17.30;99.90
35043;DHT22;21230;51.170;17.024;2023-06-14T13:33:42;17.50;99.90
35043;DHT22;21230;51.170;17.024;2023-06-14T13:36:08;17.50;99.90
35043;DHT22;21230;51.170;17.024;2023-06-14T13:38:36;17.50;99.90
35043;DHT22;21230;51.170;17.024;2023-06-14T13:41:02;17.40;99.90
35043;DHT22;21230;51.170;17.024;2023-06-14T13:43:27;17.30;99.90
35043;DHT22;21230;51.170;17.024;2023-06-14T13:45:53;17.30;99.90
35043;DHT22;21230;51.170;17.024;2023-06-14T13:48:19;17.30;99.90
35043;DHT22;21230;51.170;17.024;2023-06-14T13:50:44;17.40;99.90
35043;DHT22;21230;51.170;17.024;2023-06-14T13:53:11;17.50;99.90
35043;DHT22;21230;51.170;17.024;2023-06-14T13:55:37;17.50;99.90
35043;DHT22;21230;51.170;17.024;2023-06-14T13:58:02;17.60;99.90
35043;DHT22;21230;51.170;17.024;2023-06-14T14:00:28;17.70;99.90
35043;DHT22;21230;51.170;17.024;2023-06-14T14:02:54;17.80;99.90
35043;DHT22;21230;51.170;17.024;2023-06-14T14:05:22;17.90;99.90
35043;DHT22;21230;51.170;17.024;2023-06-14T14:07:53;17.90;99.90
35043;DHT22;21230;51.170;17.024;2023-06-14T14:10:20;18.00;99.90
35043;DHT22;21230;51.170;17.024;2023-06-14T14:12:45;17.90;99.90
35043;DHT22;21230;51.170;17.024;2023-06-14T14:15:11;17.80;99.90
35043;DHT22;21230;51.170;17.024;2023-06-14T14:17:40;17.70;99.90
35043;DHT22;21230;51.170;17.024;2023-06-14T14:20:06;17.60;99.90
35043;DHT22;21230;51.170;17.024;2023-06-14T14:22:32;17.60;99.90
35043;DHT22;21230;51.170;17.024;2023-06-14T14:24:57;17.70;99.90
35043;DHT22;21230;51.170;17.024;2023-06-14T14:27:23;17.70;99.90
35043;DHT22;21230;51.170;17.024;2023-06-14T14:29:49;17.80;99.90
35043;DHT22;21230;51.170;17.024;2023-06-14T14:32:15;17.90;99.90
35043;DHT22;21230;51.170;17.024;2023-06-14T14:34:40;17.90;99.90
35043;DHT22;21230;51.170;17.024;2023-06-14T14:37:06;18.00;98.80
35043;DHT22;21230;51.170;17.024;2023-06-14T14:39:32;18.00;99.30
35043;DHT22;21230;51.170;17.024;2023-06-14T14:41:58;18.00;94.80
35043;DHT22;21230;51.170;17.024;2023-06-14T14:44:27;18.00;95.30
35043;DHT22;21230;51.170;17.024;2023-06-14T14:46:52;18.00;93.50
35043;DHT22;21230;51.170;17.024;2023-06-14T14:49:18;18.00;94.80
35043;DHT22;21230;51.170;17.024;2023-06-14T14:51:44;17.90;95.10
35043;DHT22;21230;51.170;17.024;2023-06-14T14:54:09;17.90;97.80
35043;DHT22;21230;51.170;17.024;2023-06-14T14:56:35;17.80;98.30
35043;DHT22;21230;51.170;17.024;2023-06-14T14:59:03;17.80;99.90
35043;DHT22;21230;51.170;17.024;2023-06-14T15:01:28;17.80;99.90
35043;DHT22;21230;51.170;17.024;2023-06-14T15:03:54;17.90;99.90
35043;DHT22;21230;51.170;17.024;2023-06-14T15:06:20;17.90;99.90
35043;DHT22;21230;51.170;17.024;2023-06-14T15:08:45;18.00;99.90
35043;DHT22;21230;51.170;17.024;2023-06-14T15:11:11;17.90;99.90
35043;DHT22;21230;51.170;17.024;2023-06-14T15:13:37;18.00;99.90
35043;DHT22;21230;51.170;17.024;2023-06-14T15:16:02;18.00;99.90
35043;DHT22;21230;51.170;17.024;2023-06-14T15:18:28;18.10;99.90
35043;DHT22;21230;51.170;17.024;2023-06-14T15:20:54;18.10;99.90
35043;DHT22;21230;51.170;17.024;2023-06-14T15:23:20;18.10;99.90
35043;DHT22;21230;51.170;17.024;2023-06-14T15:25:47;18.20;99.90
35043;DHT22;21230;51.170;17.024;2023-06-14T15:28:13;18.30;99.90